createdAt,value
2022-07-26T00:20:39.384Z,44.49
2022-07-26T00:23:06.432Z,41.30
2022-07-26T00:25:33.397Z,41.19
2022-07-26T00:28:00.848Z,41.20
2022-07-26T00:30:28.911Z,41.14
2022-07-26T00:32:55.782Z,41.06
2022-07-26T00:35:22.808Z,41.03
2022-07-26T00:37:49.749Z,40.92
2022-07-26T00:40:17.617Z,40.81
2022-07-26T00:42:44.562Z,40.91
2022-07-26T00:45:11.917Z,41.07
2022-07-26T00:47:38.860Z,41.15
2022-07-26T00:50:06.965Z,41.13
2022-07-26T00:52:34.081Z,41.11
2022-07-26T00:55:01.129Z,41.15
2022-07-26T00:57:28.007Z,41.22
2022-07-26T00:59:54.917Z,41.36
2022-07-26T01:02:21.888Z,41.37
2022-07-26T01:04:48.808Z,41.42
2022-07-26T01:07:15.886Z,41.42
2022-07-26T01:09:43.211Z,41.51
2022-07-26T01:12:10.489Z,41.54
2022-07-26T01:14:37.617Z,41.68
2022-07-26T01:17:04.594Z,41.74
2022-07-26T01:19:31.500Z,41.74
2022-07-26T01:21:58.546Z,41.79
2022-07-26T01:24:25.597Z,41.83
2022-07-26T01:26:52.543Z,41.91
2022-07-26T01:29:19.489Z,41.95
2022-07-26T01:31:46.500Z,42.00
2022-07-26T01:34:13.484Z,42.05
2022-07-26T01:36:40.431Z,42.12
2022-07-26T01:39:07.579Z,42.09
2022-07-26T01:41:38.158Z,42.10
2022-07-26T01:44:07.184Z,42.12
2022-07-26T01:46:35.583Z,42.20
2022-07-26T01:49:02.947Z,42.25
2022-07-26T01:51:30.091Z,42.28
2022-07-26T01:53:56.933Z,42.29
2022-07-26T01:56:23.984Z,42.45
2022-07-26T01:58:51.027Z,42.58
2022-07-26T02:01:37.978Z,42.63
2022-07-26T02:04:05.010Z,42.63
2022-07-26T02:06:32.240Z,42.62
2022-07-26T02:09:00.824Z,42.71
2022-07-26T02:11:28.997Z,42.73
2022-07-26T02:13:55.945Z,42.82
2022-07-26T02:16:22.844Z,42.94
2022-07-26T02:18:50.050Z,42.90
2022-07-26T02:21:17.089Z,42.99
2022-07-26T02:23:44.855Z,43.15
2022-07-26T02:26:11.904Z,43.09
2022-07-26T02:28:38.847Z,43.08
2022-07-26T02:31:05.836Z,43.07
2022-07-26T02:33:32.944Z,43.10
2022-07-26T02:35:59.788Z,43.15
2022-07-26T02:38:26.735Z,43.23
2022-07-26T02:40:53.878Z,43.32
2022-07-26T02:43:20.825Z,43.32
2022-07-26T02:45:58.881Z,43.43
2022-07-26T02:48:29.426Z,43.55
2022-07-26T02:50:56.607Z,43.54
2022-07-26T02:53:23.551Z,43.60
2022-07-26T02:55:50.495Z,43.64
2022-07-26T02:58:17.367Z,43.66
2022-07-26T03:00:44.489Z,43.62
2022-07-26T03:03:14.367Z,43.69
2022-07-26T03:05:41.654Z,43.82
2022-07-26T03:08:08.702Z,43.78
2022-07-26T03:10:35.650Z,43.89
2022-07-26T03:13:02.698Z,43.91
2022-07-26T03:15:29.741Z,43.95
2022-07-26T03:17:56.894Z,43.92
2022-07-26T03:20:23.939Z,44.09
2022-07-26T03:22:50.810Z,44.08
2022-07-26T03:25:17.741Z,44.32
2022-07-26T03:27:44.675Z,44.44
2022-07-26T03:30:12.349Z,44.29
2022-07-26T03:32:39.394Z,44.39
2022-07-26T03:35:07.360Z,44.38
2022-07-26T03:37:45.897Z,44.41
2022-07-26T03:40:16.937Z,44.61
2022-07-26T03:42:45.319Z,44.44
2022-07-26T03:45:13.681Z,44.44
2022-07-26T03:47:40.629Z,44.46
2022-07-26T03:50:08.111Z,44.47
2022-07-26T03:52:35.026Z,44.38
2022-07-26T03:55:21.792Z,44.40
2022-07-26T03:57:48.583Z,44.34
2022-07-26T04:00:15.565Z,44.23
2022-07-26T04:02:42.539Z,44.19
2022-07-26T04:05:09.787Z,44.15
2022-07-26T04:07:52.822Z,44.06
2022-07-26T04:10:21.130Z,44.08
2022-07-26T04:12:48.283Z,44.06
2022-07-26T04:15:17.352Z,43.94
2022-07-26T04:17:44.340Z,43.93
2022-07-26T04:20:13.967Z,43.92
2022-07-26T04:22:40.886Z,43.87
2022-07-26T04:25:08.894Z,43.67
2022-07-26T04:27:36.179Z,43.79
2022-07-26T04:30:03.213Z,43.72
2022-07-26T04:32:30.211Z,43.53
2022-07-26T04:34:57.165Z,43.47
2022-07-26T04:37:24.114Z,43.34
2022-07-26T04:39:54.905Z,43.18
2022-07-26T04:42:22.201Z,43.04
2022-07-26T04:44:49.152Z,43.06
2022-07-26T04:47:16.090Z,43.08
2022-07-26T04:49:43.036Z,42.89
2022-07-26T04:52:09.878Z,42.82
2022-07-26T04:54:36.728Z,42.73
2022-07-26T04:57:03.980Z,42.63
2022-07-26T04:59:32.568Z,42.36
2022-07-26T05:02:00.046Z,42.30
2022-07-26T05:04:27.178Z,42.01
2022-07-26T05:06:54.126Z,41.92
2022-07-26T05:09:21.074Z,42.06
2022-07-26T05:11:47.949Z,41.81
2022-07-26T05:14:14.769Z,41.49
2022-07-26T05:16:43.959Z,41.48
2022-07-26T05:19:11.736Z,41.12
2022-07-26T05:21:39.097Z,41.21
2022-07-26T05:24:07.785Z,41.13
2022-07-26T05:26:35.250Z,40.90
2022-07-26T05:29:02.416Z,40.93
2022-07-26T05:31:29.420Z,40.75
2022-07-26T05:33:56.413Z,40.53
2022-07-26T05:36:23.364Z,40.45
2022-07-26T05:38:50.253Z,40.12
2022-07-26T05:41:17.484Z,39.74
2022-07-26T05:43:44.536Z,39.64
2022-07-26T05:46:12.095Z,39.31
2022-07-26T05:48:42.905Z,39.16
2022-07-26T05:51:10.822Z,38.96
2022-07-26T05:53:37.805Z,38.73
2022-07-26T05:56:05.340Z,38.72
2022-07-26T05:58:32.286Z,38.93
2022-07-26T06:00:59.244Z,38.65
2022-07-26T06:03:26.292Z,38.10
2022-07-26T06:05:57.232Z,37.92
2022-07-26T06:08:25.288Z,37.98
2022-07-26T06:10:52.659Z,37.51
2022-07-26T06:13:19.605Z,37.47
2022-07-26T06:15:46.754Z,36.98
2022-07-26T06:18:13.905Z,36.90
2022-07-26T06:20:41.977Z,36.83
2022-07-26T06:23:09.031Z,36.83
2022-07-26T06:25:35.986Z,36.22
2022-07-26T06:28:04.161Z,36.10
2022-07-26T06:30:31.110Z,35.76
2022-07-26T06:32:58.262Z,35.76
2022-07-26T06:35:25.210Z,35.51
2022-07-26T06:37:52.156Z,35.32
2022-07-26T06:40:19.114Z,35.50
2022-07-26T06:42:45.888Z,35.10
2022-07-26T06:45:12.809Z,34.70
2022-07-26T06:47:39.765Z,33.88
2022-07-26T06:50:07.462Z,34.27
2022-07-26T06:52:34.588Z,34.78
2022-07-26T06:55:01.842Z,34.28
2022-07-26T06:57:28.789Z,34.20
2022-07-26T06:59:55.740Z,34.40
2022-07-26T07:02:22.784Z,33.57
2022-07-26T07:04:50.127Z,33.46
2022-07-26T07:07:17.085Z,33.56
2022-07-26T07:09:44.548Z,33.61
2022-07-26T07:12:11.495Z,32.94
2022-07-26T07:14:39.302Z,32.84
2022-07-26T07:17:12.867Z,32.14
2022-07-26T07:19:41.968Z,31.82
2022-07-26T07:22:12.674Z,30.43
2022-07-26T07:24:40.369Z,30.70
2022-07-26T07:27:07.426Z,31.15
2022-07-26T07:29:34.474Z,31.31
2022-07-26T07:32:03.571Z,30.57
2022-07-26T07:34:30.646Z,30.58
2022-07-26T07:36:57.886Z,30.83
2022-07-26T07:39:27.116Z,30.10
2022-07-26T07:41:54.336Z,30.03
2022-07-26T07:44:21.388Z,29.52
2022-07-26T07:46:48.380Z,29.12
2022-07-26T07:49:16.157Z,29.00
2022-07-26T07:51:43.559Z,29.05
2022-07-26T07:54:12.961Z,28.71
2022-07-26T07:56:39.918Z,28.08
2022-07-26T07:59:07.531Z,27.04
2022-07-26T08:01:39.479Z,27.96
2022-07-26T08:04:07.155Z,28.42
2022-07-26T08:06:34.447Z,28.21
2022-07-26T08:09:01.603Z,27.54
2022-07-26T08:11:31.457Z,27.84
2022-07-26T08:14:00.884Z,27.47
2022-07-26T08:16:27.852Z,27.29
2022-07-26T08:18:57.963Z,27.49
2022-07-26T08:21:28.211Z,26.85
2022-07-26T08:23:59.704Z,27.14
2022-07-26T08:26:26.905Z,26.41
2022-07-26T08:28:59.873Z,25.90
2022-07-26T08:31:28.864Z,25.81
2022-07-26T08:33:56.192Z,25.76
2022-07-26T08:36:23.084Z,25.32
2022-07-26T08:38:49.921Z,25.27
2022-07-26T08:41:18.436Z,25.69
2022-07-26T08:43:51.822Z,25.34
2022-07-26T08:46:25.510Z,25.41
2022-07-26T08:48:54.684Z,25.09
2022-07-26T08:51:23.808Z,24.82
2022-07-26T08:53:55.474Z,24.14
2022-07-26T08:56:25.006Z,23.87
2022-07-26T08:58:51.860Z,24.34
2022-07-26T09:01:19.173Z,23.70
2022-07-26T09:03:46.907Z,23.76
2022-07-26T09:06:18.413Z,23.17
2022-07-26T09:08:48.461Z,23.38
2022-07-26T09:11:35.766Z,23.69
2022-07-26T09:14:06.213Z,23.20
2022-07-26T09:16:37.321Z,22.89
2022-07-26T09:19:21.770Z,23.17
2022-07-26T09:21:49.089Z,22.75
2022-07-26T09:24:31.606Z,22.33
2022-07-26T09:26:59.885Z,22.28
2022-07-26T09:29:26.833Z,22.17
2022-07-26T09:31:54.116Z,21.94
2022-07-26T09:34:25.491Z,21.98
2022-07-26T09:36:57.306Z,22.03
2022-07-26T09:39:33.583Z,22.31
2022-07-26T09:42:28.394Z,21.69
2022-07-26T09:44:56.904Z,21.85
2022-07-26T09:47:35.491Z,21.82
2022-07-26T09:50:29.950Z,21.68
2022-07-26T09:53:10.660Z,21.87
2022-07-26T09:55:54.409Z,21.48
2022-07-26T09:58:22.071Z,20.81
2022-07-26T10:00:49.835Z,21.01
2022-07-26T10:03:16.826Z,21.27
2022-07-26T10:05:44.133Z,20.79
2022-07-26T10:08:11.180Z,20.72
2022-07-26T10:10:48.775Z,21.08
2022-07-26T10:13:15.727Z,21.09
2022-07-26T10:15:47.227Z,20.83
2022-07-26T10:18:36.151Z,20.48
2022-07-26T10:21:24.099Z,20.23
2022-07-26T10:23:58.805Z,20.08
2022-07-26T10:26:32.089Z,20.36
2022-07-26T10:29:17.484Z,19.80
2022-07-26T10:31:45.404Z,19.40
2022-07-26T10:34:39.391Z,19.02
2022-07-26T10:37:08.615Z,19.41
2022-07-26T10:39:36.074Z,19.66
2022-07-26T10:42:08.465Z,19.77
2022-07-26T10:44:44.166Z,19.69
2022-07-26T10:47:16.071Z,19.63
2022-07-26T10:49:59.019Z,19.60
2022-07-26T10:52:30.583Z,19.50
2022-07-26T10:54:59.958Z,18.92
2022-07-26T10:57:28.339Z,18.57
2022-07-26T10:59:57.767Z,19.11
2022-07-26T11:02:26.587Z,19.42
2022-07-26T11:05:13.475Z,19.32
2022-07-26T11:07:55.195Z,19.01
2022-07-26T11:10:24.366Z,19.52
2022-07-26T11:13:05.345Z,19.51
2022-07-26T11:15:32.385Z,19.06
2022-07-26T11:18:09.928Z,18.96
2022-07-26T11:20:37.052Z,18.76
2022-07-26T11:23:04.350Z,18.90
2022-07-26T11:25:31.575Z,19.02
2022-07-26T11:28:03.304Z,19.31
2022-07-26T11:30:34.488Z,19.15
2022-07-26T11:33:01.656Z,18.90
2022-07-26T11:35:29.755Z,18.28
2022-07-26T11:38:07.854Z,17.89
2022-07-26T11:40:46.334Z,18.23
2022-07-26T11:43:13.522Z,17.43
2022-07-26T11:45:40.471Z,16.87
2022-07-26T11:48:08.551Z,17.20
2022-07-26T11:50:35.504Z,17.55
2022-07-26T11:53:02.458Z,17.55
2022-07-26T11:55:30.454Z,17.31
2022-07-26T11:57:57.703Z,17.02
2022-07-26T12:00:24.854Z,16.94
2022-07-26T12:02:55.905Z,17.27
2022-07-26T12:05:23.673Z,16.70
2022-07-26T12:07:57.195Z,16.44
2022-07-26T12:10:25.108Z,16.42
2022-07-26T12:13:07.217Z,16.16
2022-07-26T12:15:47.887Z,16.62
2022-07-26T12:18:28.853Z,17.25
2022-07-26T12:21:04.186Z,17.41
2022-07-26T12:24:01.548Z,16.58
2022-07-26T12:26:30.346Z,16.02
2022-07-26T12:28:57.900Z,16.21
2022-07-26T12:31:29.370Z,15.97
2022-07-26T12:33:56.614Z,15.78
2022-07-26T12:36:27.788Z,16.21
2022-07-26T12:38:56.207Z,16.05
2022-07-26T12:41:33.983Z,16.09
2022-07-26T12:44:00.911Z,16.14
2022-07-26T12:46:28.418Z,16.42
2022-07-26T12:49:00.052Z,16.68
2022-07-26T12:51:27.707Z,16.78
2022-07-26T12:53:54.861Z,16.35
2022-07-26T12:56:21.814Z,15.58
2022-07-26T12:58:48.666Z,16.28
2022-07-26T13:01:15.651Z,16.18
2022-07-26T13:03:42.982Z,16.15
2022-07-26T13:06:10.134Z,15.86
2022-07-26T13:08:37.193Z,15.64
2022-07-26T13:11:04.072Z,15.86
2022-07-26T13:13:31.140Z,15.61
2022-07-26T13:15:58.715Z,15.77
2022-07-26T13:18:25.751Z,15.70
2022-07-26T13:20:53.807Z,15.47
2022-07-26T13:23:21.945Z,15.72
2022-07-26T13:25:51.292Z,15.45
2022-07-26T13:28:18.560Z,15.82
2022-07-26T13:30:45.463Z,15.78
2022-07-26T13:33:12.482Z,15.57
2022-07-26T13:35:41.049Z,15.28
2022-07-26T13:38:08.794Z,15.17
2022-07-26T13:40:36.104Z,15.41
2022-07-26T13:43:03.305Z,15.41
2022-07-26T13:45:30.459Z,15.20
2022-07-26T13:47:59.144Z,15.16
2022-07-26T13:50:27.451Z,15.08
2022-07-26T13:52:56.547Z,14.98
2022-07-26T13:55:24.210Z,14.97
2022-07-26T13:57:57.080Z,15.05
2022-07-26T14:00:26.539Z,15.11
2022-07-26T14:02:54.161Z,15.15
2022-07-26T14:05:21.317Z,15.11
2022-07-26T14:07:48.478Z,15.16
2022-07-26T14:10:15.422Z,15.36
2022-07-26T14:12:42.373Z,15.38
2022-07-26T14:15:15.153Z,15.64
2022-07-26T14:17:45.811Z,15.74
2022-07-26T14:20:13.275Z,15.84
2022-07-26T14:22:40.640Z,15.68
2022-07-26T14:25:08.206Z,15.97
2022-07-26T14:27:35.262Z,15.83
2022-07-26T14:30:02.529Z,15.32
2022-07-26T14:32:29.588Z,15.07
2022-07-26T14:34:56.539Z,15.16
2022-07-26T14:37:41.885Z,15.17
2022-07-26T14:40:11.236Z,15.30
2022-07-26T14:42:38.190Z,15.37
2022-07-26T14:45:05.817Z,15.71
2022-07-26T14:47:32.804Z,15.77
2022-07-26T14:50:05.806Z,15.62
2022-07-26T14:52:33.669Z,15.69
2022-07-26T14:55:00.551Z,15.81
2022-07-26T14:57:27.682Z,15.80
2022-07-26T14:59:54.629Z,16.03
2022-07-26T15:02:22.133Z,15.95
2022-07-26T15:04:49.350Z,15.92
2022-07-26T15:07:16.228Z,16.02
2022-07-26T15:09:43.153Z,16.12
2022-07-26T15:12:10.620Z,16.33
2022-07-26T15:14:38.082Z,16.29
2022-07-26T15:17:05.162Z,16.36
2022-07-26T15:19:32.193Z,16.36
2022-07-26T15:22:02.732Z,16.57
2022-07-26T15:24:29.888Z,16.78
2022-07-26T15:26:57.050Z,16.73
2022-07-26T15:29:24.211Z,16.81
2022-07-26T15:31:51.299Z,16.96
2022-07-26T15:34:18.309Z,16.79
2022-07-26T15:36:45.261Z,16.83
2022-07-26T15:39:19.635Z,16.76
2022-07-26T15:41:47.558Z,16.76
2022-07-26T15:44:18.645Z,16.87
2022-07-26T15:46:47.926Z,16.87
2022-07-26T15:49:15.599Z,16.95
2022-07-26T15:51:43.140Z,16.92
2022-07-26T15:54:11.473Z,16.84
2022-07-26T15:56:38.783Z,17.00
2022-07-26T15:59:08.928Z,17.36
2022-07-26T16:01:36.544Z,17.37
2022-07-26T16:04:05.148Z,17.66
2022-07-26T16:06:33.239Z,17.60
2022-07-26T16:09:18.864Z,17.60
2022-07-26T16:11:47.264Z,18.16
2022-07-26T16:14:14.715Z,18.42
2022-07-26T16:16:43.859Z,19.03
2022-07-26T16:19:11.760Z,19.62
2022-07-26T16:21:39.024Z,19.53
2022-07-26T16:24:07.782Z,20.28
2022-07-26T16:26:35.892Z,20.42
2022-07-26T16:29:03.266Z,20.63
2022-07-26T16:31:30.994Z,20.76
2022-07-26T16:33:58.087Z,21.30
2022-07-26T16:36:25.291Z,21.95
2022-07-26T16:38:52.193Z,22.50
2022-07-26T16:41:19.143Z,22.99
2022-07-26T16:43:46.092Z,23.29
2022-07-26T16:46:13.133Z,24.16
2022-07-26T16:48:40.368Z,24.61
2022-07-26T16:51:07.459Z,24.62
2022-07-26T16:53:34.409Z,25.46
2022-07-26T16:56:01.561Z,25.34
2022-07-26T16:58:28.825Z,26.09
2022-07-26T17:00:55.835Z,26.41
2022-07-26T17:03:23.777Z,26.29
2022-07-26T17:05:50.894Z,26.50
2022-07-26T17:08:18.048Z,26.89
2022-07-26T17:10:45.028Z,26.88
2022-07-26T17:13:12.254Z,26.98
2022-07-26T17:15:39.109Z,27.41
2022-07-26T17:18:06.291Z,27.35
2022-07-26T17:20:34.451Z,27.61
2022-07-26T17:23:01.418Z,27.66
2022-07-26T17:25:28.763Z,27.90
2022-07-26T17:27:55.719Z,28.23
2022-07-26T17:30:22.683Z,28.75
2022-07-26T17:32:49.701Z,29.18
2022-07-26T17:35:16.729Z,30.38
2022-07-26T17:37:43.642Z,30.21
2022-07-26T17:40:11.891Z,30.11
2022-07-26T17:42:39.104Z,29.74
2022-07-26T17:45:07.192Z,29.78
2022-07-26T17:47:34.120Z,30.30
2022-07-26T17:50:26.382Z,30.04
2022-07-26T17:52:49.667Z,29.87
2022-07-26T17:55:18.563Z,29.89
2022-07-26T17:57:46.013Z,30.21
2022-07-26T18:00:13.677Z,30.52
2022-07-26T18:02:40.840Z,30.93
2022-07-26T18:05:08.228Z,31.09
2022-07-26T18:07:35.239Z,31.08
2022-07-26T18:10:02.187Z,31.02
2022-07-26T18:12:30.770Z,31.39
2022-07-26T18:14:58.023Z,31.61
2022-07-26T18:17:25.209Z,31.94
2022-07-26T18:19:52.332Z,31.94
2022-07-26T18:22:19.523Z,31.99
2022-07-26T18:24:46.752Z,31.88
2022-07-26T18:27:13.723Z,32.05
2022-07-26T18:29:40.769Z,32.13
2022-07-26T18:32:08.076Z,32.22
2022-07-26T18:34:34.985Z,32.40
2022-07-26T18:37:01.943Z,32.62
2022-07-26T18:39:30.484Z,32.56
2022-07-26T18:42:00.773Z,33.22
2022-07-26T18:44:27.830Z,32.89
2022-07-26T18:46:56.483Z,32.89
2022-07-26T18:49:30.785Z,33.06
2022-07-26T18:52:04.323Z,33.01
2022-07-26T18:54:35.849Z,33.05
2022-07-26T18:57:03.282Z,33.23
2022-07-26T18:59:31.440Z,33.27
2022-07-26T19:02:00.526Z,33.30
2022-07-26T19:04:29.090Z,33.53
2022-07-26T19:06:57.864Z,33.75
2022-07-26T19:09:25.617Z,34.00
2022-07-26T19:11:53.514Z,34.11
2022-07-26T19:14:20.716Z,34.17
2022-07-26T19:16:50.930Z,34.20
2022-07-26T19:19:18.341Z,34.07
2022-07-26T19:21:49.237Z,34.11
2022-07-26T19:24:17.570Z,34.10
2022-07-26T19:26:45.133Z,34.17
2022-07-26T19:29:12.852Z,34.14
2022-07-26T19:31:46.466Z,34.34
2022-07-26T19:34:14.895Z,34.47
2022-07-26T19:36:42.165Z,34.67
2022-07-26T19:39:09.867Z,34.66
2022-07-26T19:41:37.183Z,34.80
2022-07-26T19:44:04.520Z,34.98
2022-07-26T19:46:32.974Z,35.11
2022-07-26T19:49:00.914Z,34.94
2022-07-26T19:51:28.061Z,34.80
2022-07-26T19:53:55.308Z,34.83
2022-07-26T19:56:22.256Z,34.95
2022-07-26T19:58:49.713Z,34.99
2022-07-26T20:01:16.925Z,35.25
2022-07-26T20:03:44.112Z,35.32
2022-07-26T20:06:11.160Z,35.20
2022-07-26T20:08:38.413Z,35.25
2022-07-26T20:11:05.561Z,35.30
2022-07-26T20:13:32.433Z,35.47
2022-07-26T20:16:02.430Z,35.63
2022-07-26T20:18:31.022Z,35.72
2022-07-26T20:20:58.070Z,35.83
2022-07-26T20:23:25.120Z,35.97
2022-07-26T20:25:52.171Z,36.05
2022-07-26T20:28:19.126Z,36.26
2022-07-26T20:30:48.601Z,36.00
2022-07-26T20:33:15.792Z,36.17
2022-07-26T20:35:42.667Z,36.26
2022-07-26T20:38:09.591Z,36.33
2022-07-26T20:40:36.648Z,36.34
2022-07-26T20:43:05.444Z,36.25
2022-07-26T20:45:33.092Z,36.30
2022-07-26T20:48:00.268Z,36.43
2022-07-26T20:50:27.156Z,36.60
2022-07-26T20:52:54.167Z,36.61
2022-07-26T20:55:21.867Z,36.65
2022-07-26T20:57:50.260Z,36.92
2022-07-26T21:00:17.792Z,37.25
2022-07-26T21:02:45.113Z,37.20
2022-07-26T21:05:13.131Z,37.28
2022-07-26T21:07:58.639Z,37.71
2022-07-26T21:10:30.365Z,37.64
2022-07-26T21:13:00.481Z,37.83
2022-07-26T21:15:28.696Z,38.06
2022-07-26T21:17:55.711Z,38.34
2022-07-26T21:20:22.655Z,38.70
2022-07-26T21:22:49.600Z,38.61
2022-07-26T21:25:16.554Z,38.37
2022-07-26T21:27:44.026Z,38.36
2022-07-26T21:30:11.785Z,38.46
2022-07-26T21:32:38.731Z,38.47
2022-07-26T21:35:06.528Z,38.51
2022-07-26T21:37:33.960Z,38.61
2022-07-26T21:40:01.205Z,38.76
2022-07-26T21:42:28.362Z,38.80
2022-07-26T21:44:55.312Z,38.97
2022-07-26T21:47:22.362Z,38.96
2022-07-26T21:49:49.312Z,39.04
2022-07-26T21:52:16.465Z,38.98
2022-07-26T21:54:43.417Z,39.06
2022-07-26T21:57:10.469Z,39.07
2022-07-26T21:59:37.516Z,39.21
2022-07-26T22:02:04.511Z,39.39
2022-07-26T22:04:31.519Z,39.53
2022-07-26T22:06:58.468Z,40.21
2022-07-26T22:09:25.415Z,40.43
2022-07-26T22:11:53.508Z,40.32
2022-07-26T22:14:22.177Z,40.33
2022-07-26T22:16:49.485Z,40.50
2022-07-26T22:19:16.483Z,40.56
2022-07-26T22:21:43.426Z,40.69
2022-07-26T22:24:10.376Z,40.90
2022-07-26T22:26:37.527Z,40.87
2022-07-26T22:29:05.704Z,40.67
2022-07-26T22:31:32.803Z,40.58
2022-07-26T22:33:59.811Z,40.53
2022-07-26T22:36:26.850Z,40.66
2022-07-26T22:38:53.801Z,40.65
2022-07-26T22:41:20.753Z,40.62
2022-07-26T22:43:47.696Z,40.84
2022-07-26T22:46:14.713Z,40.97
2022-07-26T22:48:45.953Z,41.31
2022-07-26T22:51:13.665Z,41.84
2022-07-26T22:53:40.600Z,42.08
2022-07-26T22:56:07.475Z,42.17
2022-07-26T22:58:34.494Z,42.37
2022-07-26T23:01:01.575Z,42.30
2022-07-26T23:03:28.980Z,42.42
2022-07-26T23:05:57.386Z,42.38
2022-07-26T23:08:46.079Z,42.60
2022-07-26T23:11:11.240Z,42.74
2022-07-26T23:13:38.189Z,42.74
2022-07-26T23:16:05.305Z,42.85
2022-07-26T23:18:33.030Z,42.72
2022-07-26T23:20:59.946Z,42.87
2022-07-26T23:23:28.368Z,43.07
2022-07-26T23:25:57.785Z,43.04
2022-07-26T23:28:36.815Z,43.29
2022-07-26T23:31:10.347Z,43.65
2022-07-26T23:33:50.791Z,43.80
2022-07-26T23:36:25.483Z,43.94
2022-07-26T23:38:52.617Z,43.96
2022-07-26T23:41:19.664Z,44.01
2022-07-26T23:43:46.618Z,44.13
2022-07-26T23:46:13.633Z,44.15
2022-07-26T23:48:40.876Z,44.34
2022-07-26T23:51:08.176Z,44.03
2022-07-26T23:53:35.535Z,43.59
2022-07-26T23:56:02.385Z,43.51
2022-07-26T23:58:29.530Z,43.46
